Time;durP1;ratioP1;P1;durP2;ratioP2;P2;SDS_P1;SDS_P2;PMS_P1;PMS_P2;Temp;Humidity;BMP_temperature;BMP_pressure;BME280_temperature;BME280_humidity;BME280_pressure;Samples;Min_cycle;Max_cycle;Signal;HPM_P1;HPM_P2
2023/08/31 00:02:10;;;;;;;4.90;4.40;;;12.10;99.90;;;;;;5093544;28;20485;-62
2023/08/31 00:04:36;;;;;;;4.07;3.20;;;12.10;99.90;;;;;;5093623;28;20173;-62
2023/08/31 00:07:02;;;;;;;5.72;3.42;;;12.20;99.90;;;;;;5092899;28;20516;-62
2023/08/31 00:09:29;;;;;;;4.75;3.67;;;12.10;99.90;;;;;;5074937;28;20048;-62
2023/08/31 00:11:56;;;;;;;5.18;3.65;;;12.00;99.90;;;;;;5075680;28;20051;-62
2023/08/31 00:14:23;;;;;;;4.53;3.47;;;12.20;99.90;;;;;;5074480;28;20040;-62
2023/08/31 00:16:49;;;;;;;4.60;3.92;;;12.00;99.90;;;;;;5075237;28;20126;-62
2023/08/31 00:19:15;;;;;;;5.88;4.07;;;12.00;99.90;;;;;;5093320;28;20071;-62
2023/08/31 00:21:42;;;;;;;5.82;3.83;;;12.00;99.90;;;;;;5074248;28;20075;-63
2023/08/31 00:24:09;;;;;;;6.70;3.35;;;11.90;99.90;;;;;;5093071;28;20048;-62
2023/08/31 00:26:40;;;;;;;5.15;4.40;;;11.90;99.90;;;;;;5093040;28;20047;-63
2023/08/31 00:29:16;;;;;;;10.02;4.50;;;11.80;99.90;;;;;;5074016;28;20046;-63
2023/08/31 00:31:42;;;;;;;5.30;4.68;;;11.80;99.90;;;;;;5058549;28;20511;-62
2023/08/31 00:34:07;;;;;;;5.50;4.47;;;11.70;99.90;;;;;;5092170;28;20044;-62
2023/08/31 00:36:33;;;;;;;5.38;4.88;;;11.70;99.90;;;;;;5058152;28;20051;-62
2023/08/31 00:39:08;;;;;;;7.07;4.40;;;11.80;99.90;;;;;;5093441;28;20093;-62
2023/08/31 00:41:34;;;;;;;5.72;4.18;;;11.50;99.90;;;;;;5074395;28;20044;-62
2023/08/31 00:44:00;;;;;;;6.05;4.18;;;11.50;99.90;;;;;;5074997;28;20492;-63
2023/08/31 00:46:27;;;;;;;5.03;4.43;;;11.50;99.90;;;;;;5092865;28;20044;-62
2023/08/31 00:48:54;;;;;;;5.18;4.25;;;11.50;99.90;;;;;;5092249;28;20370;-62
2023/08/31 00:51:21;;;;;;;5.95;3.85;;;11.60;99.90;;;;;;5074287;28;20040;-62
2023/08/31 00:53:48;;;;;;;4.90;3.70;;;11.50;99.90;;;;;;5074379;28;20119;-63
2023/08/31 00:56:14;;;;;;;5.32;4.57;;;11.50;99.90;;;;;;5072874;28;20112;-62
2023/08/31 00:58:40;;;;;;;5.50;4.90;;;11.50;99.90;;;;;;5074363;28;20516;-62
2023/08/31 01:01:13;;;;;;;8.13;4.57;;;11.50;99.90;;;;;;5092516;28;20048;-62
2023/08/31 01:03:58;;;;;;;6.75;4.20;;;11.40;99.90;;;;;;5091600;28;20075;-62
2023/08/31 01:06:47;;;;;;;6.03;3.97;;;11.40;99.90;;;;;;5074401;28;20040;-62
2023/08/31 01:09:31;;;;;;;4.65;3.17;;;11.40;99.90;;;;;;5073641;28;20304;-62
2023/08/31 01:12:06;;;;;;;5.05;3.38;;;11.40;99.90;;;;;;5074394;28;20043;-62
2023/08/31 01:14:54;;;;;;;6.22;3.00;;;11.40;99.90;;;;;;5074173;28;20119;-62
2023/08/31 01:17:22;;;;;;;5.90;2.80;;;11.50;99.90;;;;;;5091637;28;20032;-62
2023/08/31 01:19:53;;;;;;;6.65;3.25;;;11.40;99.90;;;;;;5092224;28;20035;-62
2023/08/31 01:22:31;;;;;;;5.72;3.15;;;11.30;99.90;;;;;;5092398;28;20044;-62
2023/08/31 01:25:00;;;;;;;4.47;3.08;;;11.40;99.90;;;;;;5073746;28;20484;-62
2023/08/31 01:27:26;;;;;;;3.75;2.70;;;11.40;99.90;;;;;;5091781;28;20047;-62
2023/08/31 01:29:54;;;;;;;5.03;3.25;;;11.50;99.90;;;;;;5092383;28;20071;-62
2023/08/31 01:32:20;;;;;;;4.47;2.83;;;11.40;99.90;;;;;;5091229;28;20043;-62
2023/08/31 01:34:46;;;;;;;3.85;2.63;;;11.40;99.90;;;;;;5091901;28;20523;-62
2023/08/31 01:37:17;;;;;;;5.30;2.92;;;11.50;99.90;;;;;;5091222;28;20127;-62
2023/08/31 01:40:14;;;;;;;3.92;2.35;;;11.40;99.90;;;;;;5074057;28;20042;-62
2023/08/31 01:42:42;;;;;;;4.80;2.30;;;11.40;99.90;;;;;;5073195;28;20098;-62
2023/08/31 01:45:10;;;;;;;4.90;2.60;;;11.40;99.90;;;;;;5091381;28;20438;-62
2023/08/31 01:47:36;;;;;;;2.80;2.05;;;11.40;99.90;;;;;;5073707;28;20047;-62
2023/08/31 01:50:02;;;;;;;3.85;1.85;;;11.50;99.90;;;;;;5074331;28;20028;-62
2023/08/31 01:52:27;;;;;;;5.03;2.72;;;11.50;99.90;;;;;;5072497;28;20089;-62
2023/08/31 01:54:53;;;;;;;5.22;2.60;;;11.70;99.90;;;;;;5091979;28;20044;-62
2023/08/31 01:57:19;;;;;;;3.53;2.25;;;11.50;99.90;;;;;;5091843;28;20044;-62
2023/08/31 01:59:44;;;;;;;3.10;2.35;;;11.60;99.90;;;;;;5091072;28;20040;-62
2023/08/31 02:02:10;;;;;;;3.88;2.30;;;11.70;99.90;;;;;;5091717;28;20555;-61
2023/08/31 02:04:36;;;;;;;3.80;2.30;;;11.70;99.90;;;;;;5056864;28;20519;-62
2023/08/31 02:07:02;;;;;;;4.15;2.45;;;11.70;99.90;;;;;;5091330;28;20028;-64
2023/08/31 02:09:27;;;;;;;6.00;3.25;;;11.70;99.90;;;;;;5076320;28;20044;-64
2023/08/31 02:11:53;;;;;;;4.57;2.35;;;11.60;99.90;;;;;;5077922;28;20044;-64
2023/08/31 02:14:19;;;;;;;4.85;2.50;;;11.70;99.90;;;;;;5094980;28;20040;-64
2023/08/31 02:16:44;;;;;;;4.28;2.55;;;11.70;99.90;;;;;;5095481;28;20429;-64
2023/08/31 02:19:10;;;;;;;4.68;2.88;;;11.60;99.90;;;;;;5077176;28;20048;-64
2023/08/31 02:21:36;;;;;;;4.78;2.53;;;11.60;99.90;;;;;;5076807;28;20048;-64
2023/08/31 02:24:03;;;;;;;3.88;2.58;;;11.70;99.90;;;;;;5095755;28;20031;-64
2023/08/31 02:26:28;;;;;;;5.05;2.70;;;11.50;99.90;;;;;;5094384;28;20040;-64
2023/08/31 02:28:54;;;;;;;4.47;2.67;;;11.50;99.90;;;;;;5077431;28;20048;-64
2023/08/31 02:31:20;;;;;;;4.75;2.40;;;11.60;99.90;;;;;;5095068;28;20032;-64
2023/08/31 02:33:49;;;;;;;5.88;2.45;;;11.50;99.90;;;;;;5076460;28;20047;-64
2023/08/31 02:36:15;;;;;;;4.57;2.70;;;11.50;99.90;;;;;;5077435;28;20390;-64
2023/08/31 02:38:41;;;;;;;5.55;2.72;;;11.50;99.90;;;;;;5077245;28;20039;-64
2023/08/31 02:41:07;;;;;;;4.85;2.30;;;11.50;99.90;;;;;;5059702;28;20040;-64
2023/08/31 02:43:32;;;;;;;8.65;2.60;;;11.50;99.90;;;;;;5076844;28;20059;-64
2023/08/31 02:46:02;;;;;;;3.63;2.50;;;11.50;99.90;;;;;;5077028;28;20040;-64
2023/08/31 02:48:29;;;;;;;5.55;2.58;;;11.50;99.90;;;;;;5076045;28;20066;-64
2023/08/31 02:51:00;;;;;;;9.35;3.15;;;11.50;99.90;;;;;;5077178;28;20048;-63
2023/08/31 02:53:30;;;;;;;5.78;2.63;;;11.60;99.90;;;;;;5094948;28;20101;-64
2023/08/31 02:55:56;;;;;;;6.70;2.83;;;11.70;99.90;;;;;;5094394;28;20083;-64
2023/08/31 02:58:22;;;;;;;5.38;3.40;;;11.70;99.90;;;;;;5076794;28;20044;-64
2023/08/31 03:00:48;;;;;;;5.85;3.17;;;11.70;99.90;;;;;;5076958;28;20404;-64
2023/08/31 03:03:17;;;;;;;5.45;3.00;;;11.70;99.90;;;;;;5094099;28;20032;-65
2023/08/31 03:05:45;;;;;;;4.85;3.33;;;11.70;99.90;;;;;;5077058;28;20040;-65
2023/08/31 03:08:11;;;;;;;5.20;3.33;;;11.80;99.90;;;;;;5094771;28;20089;-65
2023/08/31 03:10:38;;;;;;;4.70;3.38;;;11.90;99.90;;;;;;5075902;28;20122;-64
2023/08/31 03:13:04;;;;;;;7.07;3.92;;;11.80;99.90;;;;;;5076563;28;20489;-65
2023/08/31 03:15:32;;;;;;;4.97;3.13;;;11.80;99.90;;;;;;5094424;28;20040;-65
2023/08/31 03:17:57;;;;;;;5.55;4.30;;;11.80;99.90;;;;;;5094095;28;20388;-65
2023/08/31 03:20:23;;;;;;;5.15;3.60;;;11.70;99.90;;;;;;5094100;28;20040;-65
2023/08/31 03:22:49;;;;;;;5.90;4.22;;;11.80;99.90;;;;;;5093580;28;20401;-65
2023/08/31 03:25:14;;;;;;;5.30;3.33;;;11.70;99.90;;;;;;5094249;28;20480;-65
2023/08/31 03:27:41;;;;;;;6.13;3.60;;;11.70;99.90;;;;;;5059588;28;20048;-65
2023/08/31 03:30:07;;;;;;;4.85;3.75;;;11.60;99.90;;;;;;5093333;28;20044;-64
2023/08/31 03:32:33;;;;;;;5.60;3.70;;;11.70;99.90;;;;;;5059388;28;20482;-65
2023/08/31 03:34:59;;;;;;;5.13;3.30;;;11.60;99.90;;;;;;5076489;28;20114;-65
2023/08/31 03:37:25;;;;;;;5.95;4.90;;;11.60;99.90;;;;;;5075370;28;20114;-65
2023/08/31 03:39:50;;;;;;;5.05;3.50;;;11.60;99.90;;;;;;5076055;28;20396;-65
2023/08/31 03:42:16;;;;;;;6.22;4.15;;;11.60;99.90;;;;;;5075733;28;20048;-65
2023/08/31 03:44:42;;;;;;;5.75;3.88;;;11.60;99.90;;;;;;5093363;28;20054;-65
2023/08/31 03:47:07;;;;;;;6.68;5.03;;;11.70;99.90;;;;;;5075737;28;20044;-65
2023/08/31 03:49:34;;;;;;;5.38;3.88;;;11.70;99.90;;;;;;5076175;28;20036;-65
2023/08/31 03:52:00;;;;;;;9.30;4.50;;;11.60;99.90;;;;;;5075365;28;20056;-65
2023/08/31 03:54:26;;;;;;;6.45;4.40;;;11.70;99.90;;;;;;5075481;28;20060;-65
2023/08/31 03:56:52;;;;;;;9.15;4.15;;;11.70;99.90;;;;;;5075648;28;20099;-64
2023/08/31 03:59:18;;;;;;;7.45;4.40;;;11.60;99.90;;;;;;5093140;28;20064;-64
2023/08/31 04:01:49;;;;;;;6.00;4.10;;;11.60;99.90;;;;;;5093822;28;20068;-64
2023/08/31 04:04:14;;;;;;;6.78;4.00;;;11.50;99.90;;;;;;5075621;28;20048;-64
2023/08/31 04:06:40;;;;;;;4.85;3.38;;;11.70;99.90;;;;;;5092853;28;20378;-64
2023/08/31 04:09:06;;;;;;;7.60;3.67;;;11.60;99.90;;;;;;5058882;28;20048;-64
2023/08/31 04:11:32;;;;;;;6.22;3.78;;;11.60;99.90;;;;;;5093647;28;20040;-64
2023/08/31 04:13:57;;;;;;;6.15;4.13;;;11.60;99.90;;;;;;5092978;28;20036;-64
2023/08/31 04:16:23;;;;;;;5.07;3.80;;;11.40;99.90;;;;;;5075263;28;20473;-64
2023/08/31 04:18:51;;;;;;;5.18;3.63;;;11.50;99.90;;;;;;5075254;28;20416;-64
2023/08/31 04:21:20;;;;;;;5.10;3.63;;;11.50;99.90;;;;;;5074650;28;20489;-64
2023/08/31 04:23:45;;;;;;;4.95;3.22;;;11.40;99.90;;;;;;5075034;28;20071;-64
2023/08/31 04:26:16;;;;;;;7.65;3.88;;;11.40;99.90;;;;;;5074341;28;20120;-64
2023/08/31 04:28:42;;;;;;;5.75;4.38;;;11.40;99.90;;;;;;5058648;28;20539;-64
2023/08/31 04:31:08;;;;;;;7.60;7.00;;;11.40;99.90;;;;;;5092338;28;20040;-64
2023/08/31 04:33:38;;;;;;;6.82;6.05;;;11.40;99.90;;;;;;5073720;28;20127;-64
2023/08/31 04:36:07;;;;;;;15.40;14.45;;;11.40;99.90;;;;;;5093398;28;20040;-64
2023/08/31 04:38:34;;;;;;;31.65;30.35;;;11.30;99.90;;;;;;5074883;28;20040;-64
2023/08/31 04:41:00;;;;;;;39.40;37.75;;;11.30;99.90;;;;;;5074088;28;20044;-64
2023/08/31 04:43:26;;;;;;;43.83;41.95;;;11.30;99.90;;;;;;5092958;28;20076;-64
2023/08/31 04:45:53;;;;;;;38.95;37.22;;;11.30;99.90;;;;;;5093295;28;20464;-64
2023/08/31 04:48:19;;;;;;;32.92;31.48;;;11.30;99.90;;;;;;5073775;28;20097;-64
2023/08/31 04:50:45;;;;;;;38.15;36.25;;;11.20;99.90;;;;;;5074331;28;20044;-64
2023/08/31 04:53:11;;;;;;;24.98;23.77;;;11.30;99.90;;;;;;5074372;28;20036;-64
2023/08/31 04:55:37;;;;;;;53.17;51.08;;;11.20;99.90;;;;;;5073569;28;20097;-64
2023/08/31 04:58:03;;;;;;;46.35;44.42;;;11.20;99.90;;;;;;5074957;28;20116;-64
2023/08/31 05:00:29;;;;;;;48.13;46.25;;;11.20;99.90;;;;;;5092101;28;20036;-64
2023/08/31 05:02:55;;;;;;;54.03;51.75;;;11.30;99.90;;;;;;5073962;28;20036;-64
2023/08/31 05:05:21;;;;;;;51.15;49.20;;;11.30;99.90;;;;;;5092377;28;20040;-64
2023/08/31 05:07:47;;;;;;;54.53;52.38;;;11.40;99.90;;;;;;5058039;28;20050;-64
2023/08/31 05:10:13;;;;;;;58.38;56.03;;;11.30;99.90;;;;;;5073633;28;20046;-64
2023/08/31 05:12:38;;;;;;;46.53;44.53;;;11.30;99.90;;;;;;5073977;28;20429;-64
2023/08/31 05:15:05;;;;;;;40.72;39.05;;;11.30;99.90;;;;;;5092667;28;20054;-64
2023/08/31 05:17:31;;;;;;;45.13;43.13;;;11.30;99.90;;;;;;5073570;28;20078;-64
2023/08/31 05:19:57;;;;;;;43.83;41.95;;;11.40;99.90;;;;;;5074349;28;20075;-64
2023/08/31 05:22:22;;;;;;;42.60;40.90;;;11.50;99.90;;;;;;5073162;28;20048;-64
2023/08/31 05:24:48;;;;;;;38.67;37.08;;;11.50;99.90;;;;;;5074115;28;20032;-64
2023/08/31 05:27:14;;;;;;;47.80;45.80;;;11.50;99.90;;;;;;5074114;28;20105;-65
2023/08/31 05:29:40;;;;;;;46.55;44.40;;;11.70;99.90;;;;;;5091398;28;20043;-64
2023/08/31 05:32:06;;;;;;;52.72;50.65;;;11.70;99.90;;;;;;5057205;28;20452;-64
2023/08/31 05:34:34;;;;;;;45.75;43.85;;;11.80;99.90;;;;;;5073955;28;20458;-64
2023/08/31 05:37:00;;;;;;;28.05;26.52;;;11.80;99.90;;;;;;5073505;28;20085;-64
2023/08/31 05:39:26;;;;;;;31.48;29.83;;;11.90;99.90;;;;;;5092188;28;20438;-64
2023/08/31 05:41:51;;;;;;;35.47;33.80;;;12.00;99.90;;;;;;5073675;28;20485;-65
2023/08/31 05:44:17;;;;;;;31.70;30.30;;;12.00;99.90;;;;;;5091106;28;20081;-64
2023/08/31 05:46:43;;;;;;;31.48;30.17;;;11.90;99.90;;;;;;5073621;28;20040;-65
2023/08/31 05:49:08;;;;;;;35.75;34.08;;;12.00;99.90;;;;;;5074076;28;20127;-65
2023/08/31 05:51:35;;;;;;;41.17;39.35;;;12.00;99.90;;;;;;5073396;28;20469;-65
2023/08/31 05:54:01;;;;;;;40.60;39.03;;;12.00;99.90;;;;;;5073918;28;20075;-65
2023/08/31 05:56:26;;;;;;;48.40;46.20;;;12.10;99.90;;;;;;5091937;28;20115;-65
2023/08/31 05:58:54;;;;;;;45.92;43.85;;;12.10;99.90;;;;;;5090931;28;20122;-65
2023/08/31 06:01:22;;;;;;;48.22;46.17;;;12.20;99.90;;;;;;5091937;28;20044;-65
2023/08/31 06:03:48;;;;;;;38.83;37.03;;;12.20;99.90;;;;;;5091692;28;20492;-65
2023/08/31 06:06:14;;;;;;;45.60;43.65;;;12.20;99.90;;;;;;5073054;28;20059;-65
2023/08/31 06:08:42;;;;;;;49.75;47.72;;;12.40;99.90;;;;;;5091589;28;20033;-65
2023/08/31 06:11:08;;;;;;;49.67;47.42;;;12.40;99.90;;;;;;5091771;28;20043;-65
2023/08/31 06:13:33;;;;;;;57.10;54.97;;;12.30;99.90;;;;;;5090965;28;20396;-65
2023/08/31 06:15:59;;;;;;;49.95;47.85;;;12.50;99.90;;;;;;5091886;28;20043;-65
2023/08/31 06:18:26;;;;;;;58.53;56.05;;;12.50;99.90;;;;;;5056537;28;20495;-65
2023/08/31 06:20:51;;;;;;;48.28;46.40;;;12.50;99.90;;;;;;5073486;28;20112;-65
2023/08/31 06:23:17;;;;;;;54.22;52.05;;;12.90;99.90;;;;;;5073577;28;20476;-65
2023/08/31 06:25:45;;;;;;;55.30;53.05;;;12.90;99.90;;;;;;5072682;28;20072;-66
2023/08/31 06:28:12;;;;;;;41.28;39.38;;;12.90;99.90;;;;;;5073004;28;20048;-65
2023/08/31 06:30:38;;;;;;;28.52;27.20;;;12.90;99.90;;;;;;5073389;28;20082;-65
2023/08/31 06:33:04;;;;;;;20.50;19.50;;;12.90;99.90;;;;;;5090980;28;20484;-66
2023/08/31 06:35:30;;;;;;;24.02;22.73;;;13.00;99.90;;;;;;5038215;28;20032;-65
2023/08/31 06:37:56;;;;;;;27.20;26.00;;;13.10;99.90;;;;;;5071639;28;20086;-65
2023/08/31 06:40:22;;;;;;;25.95;24.55;;;13.10;99.90;;;;;;5070345;28;20470;-65
2023/08/31 06:42:48;;;;;;;24.08;22.95;;;13.20;99.90;;;;;;5053423;28;20389;-65
2023/08/31 06:45:13;;;;;;;25.90;24.50;;;13.20;99.90;;;;;;5053330;28;20093;-65
2023/08/31 06:47:39;;;;;;;29.20;27.88;;;13.30;99.90;;;;;;5035265;28;20044;-65
2023/08/31 06:50:06;;;;;;;27.83;26.55;;;13.50;99.90;;;;;;5050720;28;20094;-65
2023/08/31 06:52:32;;;;;;;28.58;27.08;;;13.70;99.90;;;;;;5033917;28;20474;-65
2023/08/31 06:54:58;;;;;;;18.83;17.63;;;13.50;99.90;;;;;;5051601;28;20059;-65
2023/08/31 06:57:24;;;;;;;9.90;9.15;;;13.60;99.90;;;;;;5072044;28;20045;-65
2023/08/31 06:59:50;;;;;;;16.55;15.38;;;13.90;99.90;;;;;;5053949;28;20060;-65
2023/08/31 07:02:16;;;;;;;15.23;14.40;;;13.80;99.90;;;;;;5074847;28;20504;-65
2023/08/31 07:04:42;;;;;;;19.17;18.20;;;13.80;99.90;;;;;;5073941;28;20119;-65
2023/08/31 07:07:08;;;;;;;15.65;14.75;;;14.00;99.90;;;;;;5089897;28;20051;-65
2023/08/31 07:09:34;;;;;;;14.85;13.98;;;14.10;99.90;;;;;;5072787;28;20047;-65
2023/08/31 07:12:03;;;;;;;17.98;17.00;;;14.00;99.90;;;;;;5073839;28;20059;-65
2023/08/31 07:14:29;;;;;;;27.30;26.10;;;14.40;99.90;;;;;;5072742;28;20504;-65
2023/08/31 07:16:55;;;;;;;29.92;28.50;;;14.30;99.90;;;;;;5091244;28;20040;-65
2023/08/31 07:19:20;;;;;;;26.60;25.13;;;14.30;99.90;;;;;;5073803;28;20150;-65
2023/08/31 07:21:47;;;;;;;23.05;22.00;;;14.60;99.90;;;;;;5072034;28;20498;-66
2023/08/31 07:24:13;;;;;;;28.25;26.77;;;14.50;99.90;;;;;;5071335;28;20891;-65
2023/08/31 07:26:39;;;;;;;5.70;5.20;;;14.90;99.90;;;;;;5059109;28;20036;-65
2023/08/31 07:29:05;;;;;;;7.25;6.47;;;14.90;99.90;;;;;;5091118;28;20040;-66
2023/08/31 07:31:33;;;;;;;21.77;20.48;;;15.10;99.90;;;;;;5073243;28;20040;-66
2023/08/31 07:33:59;;;;;;;21.00;19.70;;;15.10;99.90;;;;;;5073379;28;20101;-66
2023/08/31 07:36:25;;;;;;;9.50;8.70;;;15.00;99.90;;;;;;5090338;28;20505;-66
2023/08/31 07:38:50;;;;;;;11.45;10.65;;;15.10;99.90;;;;;;5055560;28;20032;-66
2023/08/31 07:41:16;;;;;;;9.00;8.30;;;15.20;99.90;;;;;;5091004;28;20119;-66
2023/08/31 07:43:42;;;;;;;19.23;18.02;;;15.20;99.90;;;;;;5072441;28;20044;-66
2023/08/31 07:46:07;;;;;;;14.13;13.23;;;15.50;99.90;;;;;;5091622;28;20396;-66
2023/08/31 07:48:33;;;;;;;114.30;109.88;;;15.60;99.90;;;;;;5091102;28;20553;-66
2023/08/31 07:50:59;;;;;;;23.38;21.95;;;15.50;99.90;;;;;;5090868;28;20444;-66
2023/08/31 07:53:24;;;;;;;13.48;12.68;;;15.60;99.90;;;;;;5072525;28;20059;-66
2023/08/31 07:55:56;;;;;;;31.75;30.25;;;15.70;99.90;;;;;;5061657;28;20045;-66
2023/08/31 07:58:26;;;;;;;25.77;24.58;;;15.90;99.90;;;;;;5058093;28;20044;-66
2023/08/31 08:00:58;;;;;;;111.68;107.40;;;16.00;99.90;;;;;;5067602;28;20045;-66
2023/08/31 08:03:23;;;;;;;29.00;27.63;;;16.30;99.90;;;;;;5070125;28;20493;-67
2023/08/31 08:05:50;;;;;;;22.00;20.90;;;16.30;99.90;;;;;;5060684;28;20040;-67
2023/08/31 08:08:15;;;;;;;27.00;25.77;;;16.50;99.90;;;;;;5069115;28;20052;-67
2023/08/31 08:10:42;;;;;;;42.53;40.47;;;16.50;99.90;;;;;;5070220;28;20508;-67
2023/08/31 08:13:11;;;;;;;12.25;1.80;;;16.50;99.90;;;;;;5051012;28;20083;-64
2023/08/31 08:15:38;;;;;;;5.07;1.42;;;16.20;99.90;;;;;;5069532;28;20518;-64
2023/08/31 08:18:04;;;;;;;5.13;1.70;;;15.60;99.90;;;;;;5068009;28;20047;-65
2023/08/31 08:20:29;;;;;;;4.97;2.13;;;15.30;99.90;;;;;;5067941;28;20040;-67
2023/08/31 08:22:55;;;;;;;4.07;2.45;;;14.90;99.90;;;;;;5052072;28;20040;-67
2023/08/31 08:25:21;;;;;;;3.42;1.75;;;14.60;99.90;;;;;;5067547;28;20780;-67
2023/08/31 08:27:48;;;;;;;8.63;3.05;;;14.40;99.90;;;;;;5070079;28;20040;-67
2023/08/31 08:30:15;;;;;;;6.10;3.42;;;14.20;99.90;;;;;;5067845;28;20501;-67
2023/08/31 08:32:41;;;;;;;6.00;5.40;;;14.10;99.90;;;;;;5051092;28;20044;-66
2023/08/31 08:35:08;;;;;;;7.15;6.45;;;14.00;99.90;;;;;;5068994;28;20461;-65
2023/08/31 08:37:34;;;;;;;5.55;5.05;;;14.00;99.90;;;;;;5069611;28;20040;-65
2023/08/31 08:40:00;;;;;;;7.35;6.75;;;14.00;99.90;;;;;;5067253;28;20039;-65
2023/08/31 08:42:29;;;;;;;7.47;6.93;;;14.30;99.90;;;;;;5051256;28;20044;-65
2023/08/31 08:44:56;;;;;;;11.10;10.40;;;14.50;99.90;;;;;;5049433;28;20045;-65
2023/08/31 08:47:22;;;;;;;21.70;20.73;;;14.70;99.90;;;;;;5047758;28;20094;-66
2023/08/31 08:49:48;;;;;;;9.35;8.75;;;15.00;99.90;;;;;;5047658;28;20040;-66
2023/08/31 08:52:15;;;;;;;8.40;7.68;;;15.30;99.90;;;;;;5049877;28;20507;-66
2023/08/31 08:54:41;;;;;;;12.45;11.55;;;15.60;99.90;;;;;;5070648;28;20130;-66
2023/08/31 08:57:07;;;;;;;15.60;14.75;;;15.60;99.90;;;;;;5081575;28;20175;-63
2023/08/31 08:59:32;;;;;;;16.58;15.50;;;15.60;99.90;;;;;;5054434;28;20097;-63
2023/08/31 09:01:58;;;;;;;14.98;13.90;;;15.60;99.90;;;;;;5088885;28;20047;-64
2023/08/31 09:04:24;;;;;;;14.38;13.43;;;15.80;99.90;;;;;;5070951;28;20036;-63
2023/08/31 09:06:52;;;;;;;15.38;14.27;;;15.60;99.90;;;;;;5086720;28;20047;-62
2023/08/31 09:09:19;;;;;;;27.38;26.17;;;15.50;99.90;;;;;;5065171;28;20066;-62
2023/08/31 09:11:45;;;;;;;14.48;13.48;;;15.50;99.90;;;;;;5068016;28;20511;-62
2023/08/31 09:14:19;;;;;;;12.55;11.57;;;15.60;99.90;;;;;;5066032;28;20051;-62
2023/08/31 09:16:47;;;;;;;14.15;13.27;;;15.70;99.90;;;;;;5058869;28;20028;-62
2023/08/31 09:19:21;;;;;;;20.13;18.60;;;15.50;99.90;;;;;;5068597;28;20536;-62
2023/08/31 09:21:51;;;;;;;33.65;31.90;;;15.50;99.90;;;;;;5063489;28;20213;-63
2023/08/31 09:24:18;;;;;;;11.13;10.32;;;15.50;99.90;;;;;;5070278;28;20563;-63
2023/08/31 09:26:59;;;;;;;6.80;6.20;;;15.50;99.90;;;;;;5034358;28;20038;-63
2023/08/31 09:29:25;;;;;;;20.50;19.40;;;15.30;99.90;;;;;;5068119;28;20036;-63
2023/08/31 09:31:51;;;;;;;19.35;18.20;;;14.90;99.90;;;;;;5033619;28;20037;-63
2023/08/31 09:34:18;;;;;;;24.80;23.73;;;15.00;99.90;;;;;;5050475;28;20382;-63
2023/08/31 09:36:44;;;;;;;24.80;23.70;;;14.70;99.90;;;;;;5087233;28;20040;-62
2023/08/31 09:39:11;;;;;;;19.05;18.00;;;14.60;99.90;;;;;;5052955;28;20036;-62
2023/08/31 09:41:59;;;;;;;11.90;11.10;;;14.80;99.90;;;;;;5066996;28;20367;-62
2023/08/31 09:44:24;;;;;;;10.02;8.65;;;14.80;99.90;;;;;;5049473;28;20611;-62
2023/08/31 09:46:51;;;;;;;10.18;9.27;;;14.90;99.90;;;;;;5059117;28;20126;-61
2023/08/31 09:49:20;;;;;;;9.98;9.30;;;15.20;99.90;;;;;;5054277;28;20403;-61
2023/08/31 09:51:48;;;;;;;10.65;9.85;;;15.30;99.90;;;;;;5070417;28;20125;-62
2023/08/31 09:54:23;;;;;;;8.27;7.65;;;15.90;99.90;;;;;;5089109;28;20040;-62
2023/08/31 09:56:50;;;;;;;19.42;18.33;;;15.90;99.90;;;;;;5087117;28;20455;-62
2023/08/31 09:59:16;;;;;;;15.07;14.35;;;16.10;99.90;;;;;;5070222;28;20036;-63
2023/08/31 10:01:44;;;;;;;36.53;34.88;;;16.50;99.90;;;;;;5066523;28;20055;-62
2023/08/31 10:04:12;;;;;;;24.63;23.40;;;16.60;99.90;;;;;;5086481;28;20089;-63
2023/08/31 10:06:42;;;;;;;5.35;3.60;;;16.70;99.90;;;;;;5068081;28;20032;-62
2023/08/31 10:09:11;;;;;;;6.82;4.03;;;16.50;99.90;;;;;;5088316;28;20059;-63
2023/08/31 10:11:42;;;;;;;8.57;7.88;;;16.40;99.90;;;;;;5069025;28;20032;-62
2023/08/31 10:14:10;;;;;;;15.60;14.60;;;16.20;99.90;;;;;;5070247;28;20120;-63
2023/08/31 10:16:39;;;;;;;17.25;16.30;;;16.30;99.90;;;;;;5064419;28;20051;-62
2023/08/31 10:19:04;;;;;;;21.23;19.92;;;16.10;99.90;;;;;;5074494;28;20488;-62
2023/08/31 10:21:30;;;;;;;19.30;18.20;;;16.50;99.90;;;;;;5052059;28;20040;-62
2023/08/31 10:23:56;;;;;;;7.18;6.57;;;16.40;99.90;;;;;;5087740;28;20568;-63
2023/08/31 10:26:27;;;;;;;13.38;12.45;;;16.30;99.90;;;;;;5052418;28;20131;-62
2023/08/31 10:28:53;;;;;;;7.03;5.50;;;16.30;99.90;;;;;;5067225;28;20422;-63
2023/08/31 10:31:23;;;;;;;7.78;5.78;;;16.30;99.90;;;;;;5073516;28;20037;-62
2023/08/31 10:34:00;;;;;;;5.15;3.20;;;16.10;99.90;;;;;;5072062;28;20044;-62
2023/08/31 10:36:44;;;;;;;5.38;2.65;;;15.90;99.90;;;;;;5054218;28;20080;-62
2023/08/31 10:39:15;;;;;;;6.93;6.30;;;15.80;99.90;;;;;;5053578;28;20041;-62
2023/08/31 10:41:51;;;;;;;8.05;7.15;;;15.90;99.90;;;;;;5063187;28;20036;-63
2023/08/31 10:44:21;;;;;;;6.93;6.13;;;15.90;99.90;;;;;;5074652;28;20051;-62
2023/08/31 10:46:48;;;;;;;8.90;8.25;;;16.00;99.90;;;;;;5072006;28;20050;-63
2023/08/31 10:49:18;;;;;;;11.45;10.70;;;16.30;99.90;;;;;;5056716;28;20392;-62
2023/08/31 10:51:55;;;;;;;5.13;3.67;;;16.30;99.90;;;;;;5073130;28;20069;-63
2023/08/31 10:54:34;;;;;;;6.47;5.40;;;16.60;99.90;;;;;;5069141;28;20498;-63
2023/08/31 10:57:00;;;;;;;7.28;6.68;;;16.70;99.90;;;;;;5053484;28;20040;-62
2023/08/31 10:59:41;;;;;;;7.90;4.68;;;17.00;99.90;;;;;;5053235;28;20405;-63
2023/08/31 11:02:07;;;;;;;9.10;8.43;;;17.00;99.90;;;;;;5052455;28;20036;-63
2023/08/31 11:04:54;;;;;;;69.25;66.55;;;16.90;99.90;;;;;;5068470;28;20139;-62
2023/08/31 11:07:23;;;;;;;85.28;81.90;;;17.00;99.90;;;;;;5049118;28;20037;-62
2023/08/31 11:09:49;;;;;;;42.95;41.25;;;17.20;99.90;;;;;;5053568;28;20436;-63
2023/08/31 11:12:14;;;;;;;9.57;9.00;;;17.10;99.90;;;;;;5052757;28;20044;-64
2023/08/31 11:14:41;;;;;;;2.95;2.45;;;17.10;99.90;;;;;;5051447;28;20041;-63
2023/08/31 11:17:07;;;;;;;2.42;0.82;;;17.10;99.90;;;;;;5053434;28;20041;-61
2023/08/31 11:19:35;;;;;;;3.53;0.98;;;17.20;99.90;;;;;;5054897;28;20069;-63
2023/08/31 11:22:04;;;;;;;5.00;1.90;;;17.20;99.90;;;;;;5052631;28;20041;-62
2023/08/31 11:24:33;;;;;;;9.93;9.30;;;17.40;99.90;;;;;;5053808;28;20044;-63
2023/08/31 11:26:59;;;;;;;5.55;1.10;;;17.50;99.90;;;;;;5053482;28;20124;-63
2023/08/31 11:29:26;;;;;;;2.97;0.95;;;17.60;99.90;;;;;;5052170;28;20048;-63
2023/08/31 11:31:52;;;;;;;2.22;0.85;;;17.60;99.90;;;;;;5052807;28;20048;-63
2023/08/31 11:34:19;;;;;;;3.25;1.10;;;17.70;99.90;;;;;;5054168;28;20040;-63
2023/08/31 11:36:46;;;;;;;4.03;1.27;;;18.00;99.90;;;;;;5051903;28;20149;-63
2023/08/31 11:39:13;;;;;;;5.60;1.30;;;18.10;99.90;;;;;;5053915;28;20033;-64
2023/08/31 11:41:42;;;;;;;3.03;1.23;;;18.10;99.90;;;;;;5052407;28;20052;-64
2023/08/31 11:44:09;;;;;;;5.43;1.40;;;18.30;99.90;;;;;;5051813;28;20045;-63
2023/08/31 11:46:40;;;;;;;4.65;1.08;;;18.40;99.90;;;;;;5053853;28;20045;-64
2023/08/31 11:49:06;;;;;;;2.70;0.95;;;18.30;99.90;;;;;;5051773;28;20090;-63
2023/08/31 11:51:34;;;;;;;3.65;0.93;;;18.20;99.90;;;;;;5052696;28;20041;-63
2023/08/31 11:54:03;;;;;;;3.60;1.23;;;17.90;99.90;;;;;;5036457;28;20037;-63
2023/08/31 11:56:47;;;;;;;4.55;1.08;;;17.90;99.90;;;;;;5072788;28;20066;-63
2023/08/31 11:59:16;;;;;;;4.82;0.90;;;17.60;99.90;;;;;;5055469;28;20119;-63
2023/08/31 12:01:50;;;;;;;5.22;1.38;;;17.50;99.90;;;;;;5055598;28;20047;-63
2023/08/31 12:04:20;;;;;;;4.53;1.33;;;17.40;99.90;;;;;;5054806;28;20028;-63
2023/08/31 12:06:56;;;;;;;5.88;1.00;;;17.50;99.90;;;;;;5055808;28;20037;-63
2023/08/31 12:09:21;;;;;;;4.65;1.20;;;17.70;99.90;;;;;;5055441;28;20037;-63
2023/08/31 12:11:51;;;;;;;2.80;1.02;;;17.70;99.90;;;;;;5054638;28;20040;-63
2023/08/31 12:14:22;;;;;;;2.83;0.90;;;17.90;99.90;;;;;;5055352;28;20083;-63
2023/08/31 12:16:48;;;;;;;4.93;1.20;;;17.80;99.90;;;;;;5055481;28;20367;-63
2023/08/31 12:19:14;;;;;;;3.90;1.00;;;17.90;99.90;;;;;;5072557;28;20028;-63
2023/08/31 12:21:42;;;;;;;3.28;1.10;;;18.10;99.90;;;;;;5055170;28;20032;-63
2023/08/31 12:24:08;;;;;;;3.58;1.08;;;18.00;99.90;;;;;;5038724;28;20051;-63
2023/08/31 12:26:35;;;;;;;2.80;0.80;;;18.10;99.90;;;;;;5038014;28;20034;-63
2023/08/31 12:29:01;;;;;;;3.67;1.15;;;18.20;99.90;;;;;;5055309;28;20032;-63
2023/08/31 12:31:26;;;;;;;4.63;1.00;;;18.10;99.90;;;;;;5054288;28;20039;-63
2023/08/31 12:33:52;;;;;;;3.65;1.02;;;18.00;99.90;;;;;;5054953;28;20040;-63
2023/08/31 12:36:18;;;;;;;4.35;1.70;;;18.00;99.90;;;;;;5054925;28;20505;-63
2023/08/31 12:38:43;;;;;;;4.07;1.33;;;17.60;99.90;;;;;;5054345;28;20112;-64
2023/08/31 12:41:09;;;;;;;6.22;1.33;;;17.70;99.90;;;;;;5054942;28;20065;-63